createdAt,value
2018-12-22T00:01:20.563Z,97861.33
2018-12-22T00:03:48.015Z,97865.27
2018-12-22T00:06:15.490Z,97861.80
2018-12-22T00:08:43.020Z,97871.12
2018-12-22T00:11:10.753Z,97871.81
2018-12-22T00:13:38.207Z,97863.80
2018-12-22T00:16:05.741Z,97857.65
2018-12-22T00:18:33.206Z,97859.98
2018-12-22T00:21:00.648Z,97870.62
2018-12-22T00:23:28.114Z,97866.91
2018-12-22T00:25:55.623Z,97867.59
2018-12-22T00:28:23.153Z,97873.05
2018-12-22T00:30:50.659Z,97877.83
2018-12-22T00:33:18.118Z,97859.20
2018-12-22T00:35:45.606Z,97856.77
2018-12-22T00:38:13.086Z,97861.64
2018-12-22T00:40:40.529Z,97853.92
2018-12-22T00:43:07.985Z,97857.41
2018-12-22T00:45:36.404Z,97866.46
2018-12-22T00:48:03.865Z,97869.22
2018-12-22T00:50:31.310Z,97855.36
2018-12-22T00:52:58.754Z,97852.95
2018-12-22T00:55:26.241Z,97866.00
2018-12-22T00:57:53.681Z,97864.02
2018-12-22T01:00:21.153Z,97866.65
2018-12-22T01:02:48.604Z,97869.22
2018-12-22T01:05:16.180Z,97863.61
2018-12-22T01:07:43.633Z,97873.27
2018-12-22T01:10:11.078Z,97872.28
2018-12-22T01:12:39.102Z,97871.41
2018-12-22T01:15:06.734Z,97873.87
2018-12-22T01:17:34.192Z,97869.80
2018-12-22T01:20:02.077Z,97866.58
2018-12-22T01:22:29.531Z,97862.88
2018-12-22T01:24:57.003Z,97878.09
2018-12-22T01:27:24.463Z,97863.80
2018-12-22T01:29:51.901Z,97857.52
2018-12-22T01:32:19.365Z,97857.23
2018-12-22T01:34:46.897Z,97850.89
2018-12-22T01:37:14.367Z,97857.31
2018-12-22T01:39:41.813Z,97851.95
2018-12-22T01:42:09.287Z,97861.86
2018-12-22T01:44:36.766Z,97856.27
2018-12-22T01:47:04.328Z,97855.53
2018-12-22T01:49:31.777Z,97854.20
2018-12-22T01:51:59.245Z,97855.70
2018-12-22T01:54:26.806Z,97859.45
2018-12-22T01:56:54.377Z,97856.85
2018-12-22T01:59:21.829Z,97857.30
2018-12-22T02:01:49.272Z,97863.52
2018-12-22T02:04:16.745Z,97867.47
2018-12-22T02:06:44.194Z,97872.70
2018-12-22T02:09:11.663Z,97876.63
2018-12-22T02:11:39.105Z,97873.34
2018-12-22T02:14:06.569Z,97879.20
2018-12-22T02:16:34.019Z,97869.02
2018-12-22T02:19:01.498Z,97875.88
2018-12-22T02:21:28.945Z,97871.03
2018-12-22T02:23:56.405Z,97871.91
2018-12-22T02:26:23.841Z,97870.66
2018-12-22T02:28:56.491Z,97869.92
2018-12-22T02:31:20.769Z,97868.43
2018-12-22T02:33:48.235Z,97865.42
2018-12-22T02:36:15.689Z,97869.03
2018-12-22T02:38:43.148Z,97860.38
2018-12-22T02:41:10.589Z,97867.44
2018-12-22T02:43:38.052Z,97869.94
2018-12-22T02:46:05.494Z,97878.09
2018-12-22T02:48:33.040Z,97871.34
2018-12-22T02:51:00.521Z,97883.96
2018-12-22T02:53:27.975Z,97879.52
2018-12-22T02:55:55.431Z,97869.40
2018-12-22T02:58:22.878Z,97875.20
2018-12-22T03:00:50.344Z,97878.34
2018-12-22T03:03:17.782Z,97868.33
2018-12-22T03:05:45.245Z,97872.91
2018-12-22T03:08:12.703Z,97876.50
2018-12-22T03:10:40.189Z,97869.13
2018-12-22T03:13:07.639Z,97864.61
2018-12-22T03:15:35.088Z,97861.81
2018-12-22T03:18:02.611Z,97854.39
2018-12-22T03:20:30.071Z,97856.53
2018-12-22T03:22:57.518Z,97851.00
2018-12-22T03:25:25.004Z,97850.66
2018-12-22T03:27:52.457Z,97848.88
2018-12-22T03:30:19.918Z,97844.94
2018-12-22T03:32:47.388Z,97846.16
2018-12-22T03:35:14.954Z,97850.99
2018-12-22T03:37:42.490Z,97853.93
2018-12-22T03:40:09.940Z,97851.97
2018-12-22T03:42:37.420Z,97842.30
2018-12-22T03:45:05.541Z,97841.22
2018-12-22T03:47:33.007Z,97837.20
2018-12-22T03:50:00.454Z,97828.45
2018-12-22T03:52:27.926Z,97835.09
2018-12-22T03:54:55.372Z,97836.07
2018-12-22T03:57:22.846Z,97824.15
2018-12-22T03:59:50.305Z,97824.77
2018-12-22T04:02:17.770Z,97840.35
2018-12-22T04:04:45.220Z,97837.84
2018-12-22T04:07:12.687Z,97819.45
2018-12-22T04:09:40.133Z,97839.89
2018-12-22T04:12:07.594Z,97834.98
2018-12-22T04:14:35.044Z,97839.41
2018-12-22T04:17:02.628Z,97834.61
2018-12-22T04:19:30.085Z,97833.39
2018-12-22T04:21:57.554Z,97834.45
2018-12-22T04:24:25.016Z,97829.55
2018-12-22T04:26:52.477Z,97831.58
2018-12-22T04:29:19.923Z,97828.83
2018-12-22T04:31:47.371Z,97837.42
2018-12-22T04:34:14.849Z,97840.77
2018-12-22T04:36:42.306Z,97841.92
2018-12-22T04:39:09.760Z,97838.23
2018-12-22T04:41:37.214Z,97841.39
2018-12-22T04:44:04.680Z,97834.32
2018-12-22T04:46:32.127Z,97837.32
2018-12-22T04:48:59.822Z,97833.28
2018-12-22T04:51:27.290Z,97837.57
2018-12-22T04:53:54.759Z,97831.24
2018-12-22T04:56:22.210Z,97833.39
2018-12-22T04:58:49.674Z,97842.97
2018-12-22T05:01:17.132Z,97842.34
2018-12-22T05:03:44.597Z,97831.46
2018-12-22T05:06:12.037Z,97825.41
2018-12-22T05:08:39.506Z,97834.57
2018-12-22T05:11:06.951Z,97820.85
2018-12-22T05:13:34.539Z,97823.93
2018-12-22T05:16:01.989Z,97812.97
2018-12-22T05:18:29.458Z,97805.55
2018-12-22T05:20:57.222Z,97796.58
2018-12-22T05:23:24.697Z,97793.36
2018-12-22T05:25:52.144Z,97787.62
2018-12-22T05:28:19.586Z,97792.89
2018-12-22T05:30:47.044Z,97797.19
2018-12-22T05:33:14.486Z,97803.78
2018-12-22T05:35:41.951Z,97808.36
2018-12-22T05:38:09.393Z,97819.83
2018-12-22T05:40:36.858Z,97842.90
2018-12-22T05:43:04.313Z,97847.55
2018-12-22T05:45:31.769Z,97806.63
2018-12-22T05:47:59.218Z,97822.38
2018-12-22T05:50:26.685Z,97818.81
2018-12-22T05:52:54.130Z,97808.07
2018-12-22T05:55:21.589Z,97808.39
2018-12-22T05:57:49.039Z,97805.87
2018-12-22T06:00:16.509Z,97803.64
2018-12-22T06:02:43.953Z,97801.56
2018-12-22T06:05:11.713Z,97791.88
2018-12-22T06:07:39.162Z,97801.89
2018-12-22T06:10:07.505Z,97800.23
2018-12-22T06:12:34.966Z,97808.48
2018-12-22T06:15:02.418Z,97813.50
2018-12-22T06:17:29.878Z,97805.21
2018-12-22T06:19:57.341Z,97777.67
2018-12-22T06:22:24.823Z,97775.68
2018-12-22T06:24:52.283Z,97781.73
2018-12-22T06:27:19.737Z,97773.90
2018-12-22T06:29:47.189Z,97775.83
2018-12-22T06:32:14.733Z,97776.13
2018-12-22T06:34:42.200Z,97784.64
2018-12-22T06:37:09.658Z,97781.56
2018-12-22T06:39:37.102Z,97801.05
2018-12-22T06:42:04.657Z,97827.01
2018-12-22T06:44:32.117Z,97838.56
2018-12-22T06:46:59.582Z,97869.27
2018-12-22T06:49:27.035Z,97881.95
2018-12-22T06:51:54.498Z,97911.10
2018-12-22T06:54:21.946Z,97887.27
2018-12-22T06:56:49.401Z,97905.30
2018-12-22T06:59:16.852Z,97890.12
2018-12-22T07:01:44.291Z,97917.62
2018-12-22T07:04:11.750Z,97900.70
2018-12-22T07:06:39.198Z,97924.64
2018-12-22T07:09:07.228Z,97926.54
2018-12-22T07:11:34.685Z,97951.89
2018-12-22T07:14:02.157Z,97933.91
2018-12-22T07:16:29.597Z,97960.59
2018-12-22T07:18:57.073Z,97940.24
2018-12-22T07:21:24.513Z,97944.39
2018-12-22T07:23:51.975Z,97937.66
2018-12-22T07:26:19.417Z,97918.30
2018-12-22T07:28:46.878Z,97920.92
2018-12-22T07:31:14.337Z,97927.90
2018-12-22T07:33:41.846Z,97922.19
2018-12-22T07:36:09.361Z,97923.15
2018-12-22T07:38:36.830Z,97921.25
2018-12-22T07:41:04.369Z,97907.67
2018-12-22T07:43:31.842Z,97913.68
2018-12-22T07:45:59.293Z,97911.27
2018-12-22T07:48:26.732Z,97910.55
2018-12-22T07:50:54.195Z,97904.87
2018-12-22T07:53:21.646Z,97902.50
2018-12-22T07:55:49.147Z,97914.23
2018-12-22T07:58:16.627Z,97923.13
2018-12-22T08:00:44.087Z,97928.66
2018-12-22T08:03:11.558Z,97928.79
2018-12-22T08:05:39.199Z,97938.02
2018-12-22T08:08:06.984Z,97942.48
2018-12-22T08:10:34.438Z,97943.17
2018-12-22T08:13:01.879Z,97943.08
2018-12-22T08:15:29.336Z,97945.50
2018-12-22T08:17:56.786Z,97944.80
2018-12-22T08:20:24.250Z,97951.55
2018-12-22T08:22:51.702Z,97938.84
2018-12-22T08:25:19.170Z,97934.11
2018-12-22T08:27:46.619Z,97938.30
2018-12-22T08:30:15.005Z,97933.89
2018-12-22T08:32:42.446Z,97937.24
2018-12-22T08:35:09.899Z,97930.27
2018-12-22T08:37:37.349Z,97938.44
2018-12-22T08:40:07.672Z,97938.52
2018-12-22T08:42:35.141Z,97937.50
2018-12-22T08:45:02.681Z,97943.20
2018-12-22T08:47:30.194Z,97951.37
2018-12-22T08:49:57.647Z,97947.66
2018-12-22T08:52:25.126Z,97961.88
2018-12-22T08:54:52.593Z,97969.83
2018-12-22T08:57:20.055Z,97970.38
2018-12-22T08:59:47.517Z,97957.56
2018-12-22T09:02:14.969Z,97983.53
2018-12-22T09:04:42.515Z,97984.17
2018-12-22T09:07:09.983Z,97965.55
2018-12-22T09:09:37.420Z,97963.06
2018-12-22T09:12:04.882Z,97958.92
2018-12-22T09:14:32.342Z,97954.94
2018-12-22T09:16:59.888Z,97960.19
2018-12-22T09:19:27.332Z,97958.91
2018-12-22T09:21:54.782Z,97966.40
2018-12-22T09:24:22.238Z,97969.35
2018-12-22T09:26:49.677Z,97936.34
2018-12-22T09:29:17.149Z,97941.16
2018-12-22T09:31:44.606Z,97939.68
2018-12-22T09:34:13.442Z,97944.34
2018-12-22T09:36:41.403Z,97947.53
2018-12-22T09:39:08.929Z,97957.35
2018-12-22T09:41:36.401Z,97963.95
2018-12-22T09:44:03.874Z,97966.89
2018-12-22T09:46:31.331Z,97964.20
2018-12-22T09:48:58.796Z,97970.05
2018-12-22T09:51:26.242Z,97977.23
2018-12-22T09:53:53.703Z,98003.03
2018-12-22T09:56:21.163Z,97976.04
2018-12-22T09:58:48.642Z,97975.60
2018-12-22T10:01:16.105Z,97969.55
2018-12-22T10:03:43.582Z,97969.53
2018-12-22T10:06:11.049Z,97985.56
2018-12-22T10:08:38.664Z,98002.38
2018-12-22T10:11:06.130Z,97979.43
2018-12-22T10:13:34.115Z,97983.25
2018-12-22T10:16:01.608Z,97984.17
2018-12-22T10:18:29.077Z,97962.75
2018-12-22T10:20:56.559Z,97968.51
2018-12-22T10:23:24.062Z,97891.24
2018-12-22T10:25:51.528Z,97970.17
2018-12-22T10:28:18.990Z,97967.98
2018-12-22T10:30:46.480Z,97976.35
2018-12-22T10:33:13.929Z,97990.11
2018-12-22T10:35:41.388Z,97988.87
2018-12-22T10:38:08.854Z,97972.72
2018-12-22T10:40:36.325Z,97960.36
2018-12-22T10:43:03.781Z,97955.81
2018-12-22T10:45:31.967Z,97938.19
2018-12-22T10:47:59.428Z,97947.84
2018-12-22T10:50:26.921Z,97946.19
2018-12-22T10:52:54.371Z,97940.72
2018-12-22T10:55:21.818Z,97957.19
2018-12-22T10:57:49.303Z,97946.59
2018-12-22T11:00:16.776Z,97945.19
2018-12-22T11:02:44.231Z,97959.05
2018-12-22T11:05:11.688Z,97959.45
2018-12-22T11:07:39.267Z,97954.22
2018-12-22T11:10:10.801Z,97956.53
2018-12-22T11:12:38.275Z,97957.13
2018-12-22T11:15:07.821Z,97954.16
2018-12-22T11:17:35.418Z,97947.02
2018-12-22T11:20:03.959Z,97957.51
2018-12-22T11:22:31.422Z,97971.25
2018-12-22T11:24:59.461Z,98078.45
2018-12-22T11:27:26.923Z,98071.21
2018-12-22T11:29:54.559Z,98057.28
2018-12-22T11:32:22.057Z,98064.80
2018-12-22T11:34:49.575Z,98041.91
2018-12-22T11:37:17.061Z,98031.09
2018-12-22T11:39:44.500Z,98047.86
2018-12-22T11:42:11.966Z,98054.86
2018-12-22T11:44:39.409Z,98098.91
2018-12-22T11:47:09.425Z,98107.23
2018-12-22T11:49:36.972Z,98073.28
2018-12-22T11:52:04.408Z,98097.67
2018-12-22T11:57:09.495Z,98014.77
2018-12-22T11:59:37.249Z,98037.12
2018-12-22T12:02:09.661Z,98038.50
2018-12-22T12:04:34.272Z,98033.37
2018-12-22T12:07:01.757Z,98063.86
2018-12-22T12:09:29.256Z,98050.92
2018-12-22T12:11:56.706Z,98049.55
2018-12-22T12:14:24.195Z,98045.56
2018-12-22T12:16:51.941Z,98058.00
2018-12-22T12:19:19.413Z,98055.47
2018-12-22T12:21:47.257Z,98054.35
2018-12-22T12:24:14.704Z,98046.30
2018-12-22T12:26:42.815Z,98071.44
2018-12-22T12:29:10.258Z,98056.66
2018-12-22T12:31:37.888Z,98055.32
2018-12-22T12:34:05.330Z,98047.82
2018-12-22T12:36:32.816Z,98068.41
2018-12-22T12:39:00.270Z,98076.75
2018-12-22T12:41:27.712Z,98074.23
2018-12-22T12:43:55.174Z,98078.54
2018-12-22T12:46:22.647Z,98087.84
2018-12-22T12:48:50.114Z,98079.86
2018-12-22T12:51:17.744Z,98084.84
2018-12-22T12:53:45.838Z,98075.08
2018-12-22T12:56:13.773Z,98053.78
2018-12-22T12:58:41.238Z,98076.86
2018-12-22T13:01:08.693Z,98088.14
2018-12-22T13:03:36.268Z,98093.13
2018-12-22T13:06:03.724Z,98088.72
2018-12-22T13:08:31.185Z,98095.75
2018-12-22T13:10:58.638Z,98113.03
2018-12-22T13:13:40.813Z,98132.48
2018-12-22T13:16:08.300Z,98175.33
2018-12-22T13:18:35.765Z,98159.11
2018-12-22T13:21:05.484Z,98147.81
2018-12-22T13:23:32.933Z,98133.94
2018-12-22T13:26:00.380Z,98157.37
2018-12-22T13:28:27.855Z,98141.37
2018-12-22T13:30:55.305Z,98149.08
2018-12-22T13:33:23.255Z,98142.90
2018-12-22T13:35:51.022Z,98169.50
2018-12-22T13:38:18.677Z,98158.18
2018-12-22T13:40:46.239Z,98159.27
2018-12-22T13:43:13.777Z,98160.46
2018-12-22T13:45:41.230Z,98162.50
2018-12-22T13:48:08.996Z,98147.60
2018-12-22T13:50:37.098Z,98153.70
2018-12-22T13:53:04.842Z,98129.19
2018-12-22T13:55:32.297Z,98156.66
2018-12-22T13:57:59.758Z,98142.78
2018-12-22T14:00:29.218Z,98146.72
2018-12-22T14:02:56.666Z,98144.55
2018-12-22T14:05:26.785Z,98141.55
2018-12-22T14:07:54.254Z,98151.25
2018-12-22T14:10:22.989Z,98156.05
2018-12-22T14:12:50.460Z,98160.63
2018-12-22T14:15:22.208Z,98163.16
2018-12-22T14:18:03.433Z,98147.91
2018-12-22T14:20:32.758Z,98152.62
2018-12-22T14:23:00.217Z,98163.31
2018-12-22T14:25:27.759Z,98173.63
2018-12-22T14:27:56.177Z,98183.59
2018-12-22T14:30:23.704Z,98191.27
2018-12-22T14:32:51.182Z,98192.26
2018-12-22T14:35:22.625Z,98206.23
2018-12-22T14:37:50.202Z,98194.69
2018-12-22T14:40:17.860Z,98217.23
2018-12-22T14:42:45.325Z,98208.92
2018-12-22T14:45:13.927Z,98196.98
2018-12-22T14:47:41.952Z,98226.17
2018-12-22T14:50:12.065Z,98271.56
2018-12-22T14:52:39.508Z,98224.38
2018-12-22T14:55:09.741Z,98222.64
2018-12-22T14:57:46.983Z,98225.83
2018-12-22T15:00:16.480Z,98240.20
2018-12-22T15:02:44.019Z,98242.02
2018-12-22T15:05:11.474Z,98241.09
2018-12-22T15:07:38.934Z,98230.03
2018-12-22T15:10:09.613Z,98242.00
2018-12-22T15:12:37.062Z,98243.77
2018-12-22T15:15:09.748Z,98240.77
2018-12-22T15:17:38.785Z,98243.23
2018-12-22T15:20:22.140Z,98246.02
2018-12-22T15:22:49.594Z,98240.03
2018-12-22T15:25:17.153Z,98240.73
2018-12-22T15:27:44.619Z,98237.88
2018-12-22T15:30:14.828Z,98240.66
2018-12-22T15:32:44.439Z,98243.47
2018-12-22T15:35:11.856Z,98252.53
2018-12-22T15:37:39.302Z,98253.30
2018-12-22T15:40:10.171Z,98247.00
2018-12-22T15:42:37.731Z,98283.66
2018-12-22T15:45:10.336Z,98260.27
2018-12-22T15:47:37.780Z,98269.95
2018-12-22T15:50:09.930Z,98266.16
2018-12-22T15:52:37.394Z,98284.20
2018-12-22T15:55:07.873Z,98242.02
2018-12-22T15:57:35.332Z,98270.91
2018-12-22T16:00:03.346Z,98281.95
2018-12-22T16:02:30.824Z,98283.16
2018-12-22T16:04:58.271Z,98273.74
2018-12-22T16:07:25.727Z,98311.19
2018-12-22T16:09:53.179Z,98318.79
2018-12-22T16:12:20.666Z,98304.83
2018-12-22T16:14:48.105Z,98305.69
2018-12-22T16:17:15.556Z,98340.33
2018-12-22T16:19:42.985Z,98323.02
2018-12-22T16:22:10.447Z,98346.96
2018-12-22T16:24:39.081Z,98365.50
2018-12-22T16:27:06.529Z,98344.91
2018-12-22T16:29:34.653Z,98360.63
2018-12-22T16:32:02.246Z,98348.19
2018-12-22T16:34:29.852Z,98333.69
2018-12-22T16:36:57.310Z,98356.05
2018-12-22T16:39:24.744Z,98361.38
2018-12-22T16:41:52.461Z,98370.57
2018-12-22T16:44:19.907Z,98382.63
2018-12-22T16:46:47.348Z,98392.64
2018-12-22T16:49:14.807Z,98393.40
2018-12-22T16:51:42.856Z,98397.52
2018-12-22T16:54:10.322Z,98389.27
2018-12-22T16:56:37.777Z,98432.39
2018-12-22T16:59:05.255Z,98402.69
2018-12-22T17:01:36.661Z,98428.24
2018-12-22T17:04:04.121Z,98409.23
2018-12-22T17:06:31.847Z,98409.41
2018-12-22T17:08:59.306Z,98409.76
2018-12-22T17:11:26.913Z,98418.97
2018-12-22T17:13:54.373Z,98415.50
2018-12-22T17:16:21.835Z,98446.36
2018-12-22T17:18:49.311Z,98437.19
2018-12-22T17:21:19.961Z,98459.39
2018-12-22T17:23:56.630Z,98463.28
2018-12-22T17:26:27.155Z,98467.77
2018-12-22T17:28:54.637Z,98464.23
2018-12-22T17:31:22.109Z,98453.41
2018-12-22T17:33:49.553Z,98461.84
2018-12-22T17:36:17.038Z,98465.33
2018-12-22T17:38:44.662Z,98464.16
2018-12-22T17:41:12.120Z,98475.91
2018-12-22T17:43:39.759Z,98473.26
2018-12-22T17:46:07.224Z,98488.55
2018-12-22T17:48:34.672Z,98478.52
2018-12-22T17:51:02.127Z,98475.91
2018-12-22T17:53:29.670Z,98482.11
2018-12-22T17:55:57.776Z,98490.83
2018-12-22T17:58:25.264Z,98492.92
2018-12-22T18:00:52.733Z,98491.18
2018-12-22T18:03:27.456Z,98491.58
2018-12-22T18:05:49.704Z,98482.69
2018-12-22T18:08:17.159Z,98480.62
2018-12-22T18:10:44.602Z,98482.22
2018-12-22T18:13:12.050Z,98487.45
2018-12-22T18:15:39.489Z,98489.98
2018-12-22T18:18:06.947Z,98487.07
2018-12-22T18:20:34.382Z,98488.84
2018-12-22T18:23:01.842Z,98502.52
2018-12-22T18:25:29.278Z,98505.59
2018-12-22T18:27:56.742Z,98501.53
2018-12-22T18:30:24.185Z,98500.41
2018-12-22T18:32:51.641Z,98494.17
2018-12-22T18:35:19.088Z,98479.66
2018-12-22T18:37:46.534Z,98482.80
2018-12-22T18:40:18.658Z,98474.20
2018-12-22T18:42:47.085Z,98480.17
2018-12-22T18:45:14.554Z,98481.09
2018-12-22T18:47:43.215Z,98473.52
2018-12-22T18:50:16.822Z,98486.45
2018-12-22T18:52:44.398Z,98476.43
2018-12-22T18:55:11.841Z,98477.11
2018-12-22T18:57:39.317Z,98490.25
2018-12-22T19:00:12.166Z,98483.59
2018-12-22T19:02:39.649Z,98483.42
2018-12-22T19:05:08.291Z,98493.67
2018-12-22T19:07:35.750Z,98489.72
2018-12-22T19:10:05.570Z,98491.73
2018-12-22T19:12:33.040Z,98489.59
2018-12-22T19:15:00.538Z,98492.73
2018-12-22T19:17:27.987Z,98497.74
2018-12-22T19:19:55.441Z,98497.74
2018-12-22T19:22:22.937Z,98507.03
2018-12-22T19:24:50.491Z,98504.39
2018-12-22T19:27:17.947Z,98515.06
2018-12-22T19:29:45.413Z,98537.44
2018-12-22T19:32:12.859Z,98529.71
2018-12-22T19:34:40.367Z,98526.25
2018-12-22T19:37:07.799Z,98526.99
2018-12-22T19:39:35.266Z,98526.67
2018-12-22T19:42:02.712Z,98533.02
2018-12-22T19:44:30.162Z,98531.05
2018-12-22T19:46:57.594Z,98537.70
2018-12-22T19:49:25.042Z,98544.49
2018-12-22T19:51:52.496Z,98531.05
2018-12-22T19:54:20.011Z,98542.04
2018-12-22T19:56:47.509Z,98557.00
2018-12-22T19:59:14.945Z,98574.97
2018-12-22T20:01:42.402Z,98560.79
2018-12-22T20:04:09.854Z,98548.80
2018-12-22T20:06:37.316Z,98542.11
2018-12-22T20:09:05.658Z,98548.62
2018-12-22T20:11:33.123Z,98539.59
2018-12-22T20:14:00.590Z,98528.43
2018-12-22T20:16:28.065Z,98543.48
2018-12-22T20:18:55.507Z,98554.25
2018-12-22T20:21:22.977Z,98549.88
2018-12-22T20:23:50.430Z,98546.30
2018-12-22T20:26:17.915Z,98547.38
2018-12-22T20:28:45.359Z,98552.06
2018-12-22T20:31:12.833Z,98568.42
2018-12-22T20:33:40.308Z,98566.63
2018-12-22T20:36:07.743Z,98583.84
2018-12-22T20:38:36.033Z,98575.77
2018-12-22T20:41:03.475Z,98571.24
2018-12-22T20:43:31.094Z,98580.91
2018-12-22T20:45:58.526Z,98593.94
2018-12-22T20:48:25.982Z,98584.48
2018-12-22T20:50:53.435Z,98588.47
2018-12-22T20:53:20.889Z,98586.95
2018-12-22T20:55:48.338Z,98571.72
2018-12-22T20:58:15.800Z,98595.95
2018-12-22T21:00:43.237Z,98593.72
2018-12-22T21:03:10.700Z,98599.17
2018-12-22T21:05:41.558Z,98603.40
2018-12-22T21:08:09.017Z,98611.50
2018-12-22T21:10:36.459Z,98614.41
2018-12-22T21:13:03.910Z,98617.95
2018-12-22T21:15:31.353Z,98616.96
2018-12-22T21:17:59.038Z,98621.59
2018-12-22T21:20:26.478Z,98625.50
2018-12-22T21:22:53.931Z,98623.89
2018-12-22T21:25:21.386Z,98628.52
2018-12-22T21:27:48.923Z,98634.11
2018-12-22T21:30:16.387Z,98636.88
2018-12-22T21:32:43.843Z,98639.89
2018-12-22T21:35:11.297Z,98637.22
2018-12-22T21:37:38.745Z,98646.13
2018-12-22T21:40:07.789Z,98647.04
2018-12-22T21:42:35.221Z,98653.73
2018-12-22T21:45:02.697Z,98650.27
2018-12-22T21:47:30.146Z,98653.81
2018-12-22T21:49:57.596Z,98660.58
2018-12-22T21:52:25.057Z,98654.73
2018-12-22T21:54:52.909Z,98661.58
2018-12-22T21:57:20.359Z,98661.88
2018-12-22T21:59:47.809Z,98655.98
2018-12-22T22:02:15.263Z,98643.72
2018-12-22T22:04:42.744Z,98651.11
2018-12-22T22:07:10.177Z,98645.88
2018-12-22T22:09:37.623Z,98647.83
2018-12-22T22:12:05.077Z,98648.20
2018-12-22T22:14:32.529Z,98654.73
2018-12-22T22:16:59.990Z,98654.98
2018-12-22T22:19:27.432Z,98658.05
2018-12-22T22:21:54.892Z,98653.25
2018-12-22T22:24:22.347Z,98664.19
2018-12-22T22:26:49.813Z,98667.03
2018-12-22T22:29:17.266Z,98669.78
2018-12-22T22:31:44.735Z,98668.23
2018-12-22T22:34:12.184Z,98665.41
2018-12-22T22:36:39.643Z,98667.92
2018-12-22T22:39:07.078Z,98663.14
2018-12-22T22:41:34.569Z,98658.14
2018-12-22T22:44:02.025Z,98658.70
2018-12-22T22:46:29.482Z,98651.69
2018-12-22T22:48:56.927Z,98647.44
2018-12-22T22:51:24.378Z,98651.32
2018-12-22T22:53:51.809Z,98645.70
2018-12-22T22:56:19.274Z,98641.49
2018-12-22T22:58:46.725Z,98648.58
2018-12-22T23:01:14.232Z,98657.28
2018-12-22T23:03:41.688Z,98651.81
2018-12-22T23:06:09.130Z,98649.90
2018-12-22T23:08:36.589Z,98652.67
2018-12-22T23:11:04.117Z,98646.58
2018-12-22T23:13:31.580Z,98646.67
2018-12-22T23:15:59.023Z,98637.52
2018-12-22T23:18:26.474Z,98568.91
2018-12-22T23:20:54.596Z,98643.80
2018-12-22T23:23:22.057Z,98635.72
2018-12-22T23:25:49.496Z,98637.81
2018-12-22T23:28:16.960Z,98647.50
2018-12-22T23:30:44.402Z,98647.13
2018-12-22T23:33:11.864Z,98651.66
2018-12-22T23:35:39.306Z,98652.78
2018-12-22T23:38:06.772Z,98636.79
2018-12-22T23:40:34.221Z,98640.86
2018-12-22T23:43:01.699Z,98637.33
2018-12-22T23:45:29.230Z,98631.14
2018-12-22T23:47:56.673Z,98643.75
2018-12-22T23:50:24.148Z,98654.77
2018-12-22T23:52:51.590Z,98646.14
2018-12-22T23:55:19.051Z,98658.67
2018-12-22T23:57:46.499Z,98657.91
